Time;durP1;ratioP1;P1;durP2;ratioP2;P2;SDS_P1;SDS_P2;PMS_P1;PMS_P2;Temp;Humidity;BMP_temperature;BMP_pressure;BME280_temperature;BME280_humidity;BME280_pressure;Samples;Min_cycle;Max_cycle;Signal;HPM_P1;HPM_P2
2021/07/02 00:00:32;;;;;;;65.30;11.40;;;21.00;78.90;;;;;;5022744;28;20486;-61
2021/07/02 00:03:01;;;;;;;60.72;11.30;;;20.90;78.90;;;;;;5007310;28;20022;-61
2021/07/02 00:05:26;;;;;;;56.65;10.63;;;21.00;79.00;;;;;;4973488;28;20029;-60
2021/07/02 00:07:52;;;;;;;56.00;10.23;;;21.00;79.00;;;;;;5007527;28;20370;-61
2021/07/02 00:10:17;;;;;;;59.53;10.50;;;20.90;78.90;;;;;;4989228;28;20080;-60
2021/07/02 00:12:43;;;;;;;59.88;11.15;;;20.90;78.90;;;;;;5005305;28;20053;-61
2021/07/02 00:15:09;;;;;;;50.47;9.52;;;20.90;78.90;;;;;;5006664;28;20298;-60
2021/07/02 00:17:34;;;;;;;62.67;11.38;;;20.90;78.90;;;;;;4973965;28;20033;-61
2021/07/02 00:20:00;;;;;;;46.15;9.35;;;20.90;78.90;;;;;;4988656;28;20030;-60
2021/07/02 00:22:25;;;;;;;46.38;9.05;;;20.90;78.90;;;;;;4988769;28;20030;-60
2021/07/02 00:24:51;;;;;;;37.45;8.50;;;20.90;78.90;;;;;;5019315;28;20026;-61
2021/07/02 00:27:16;;;;;;;40.55;9.57;;;20.90;78.90;;;;;;5005197;28;20497;-61
2021/07/02 00:29:42;;;;;;;48.92;9.60;;;20.80;78.90;;;;;;4983320;28;21325;-62
2021/07/02 00:32:08;;;;;;;44.47;9.65;;;20.90;78.90;;;;;;5002945;28;20030;-61
2021/07/02 00:34:33;;;;;;;45.13;9.80;;;20.80;78.90;;;;;;5004627;28;20373;-62
2021/07/02 00:36:59;;;;;;;43.15;8.35;;;20.80;79.00;;;;;;4971215;28;20034;-62
2021/07/02 00:39:24;;;;;;;26.25;8.15;;;20.80;78.90;;;;;;4987603;28;20038;-61
2021/07/02 00:41:50;;;;;;;35.38;9.38;;;20.80;78.90;;;;;;5003594;28;20033;-62
2021/07/02 00:44:15;;;;;;;33.63;9.75;;;20.80;78.90;;;;;;5002249;28;20034;-62
2021/07/02 00:46:41;;;;;;;41.15;9.68;;;20.80;79.00;;;;;;5019981;28;20500;-60
2021/07/02 00:49:07;;;;;;;47.30;10.05;;;20.70;78.90;;;;;;4987242;28;20125;-61
2021/07/02 00:51:34;;;;;;;28.67;8.68;;;20.70;78.90;;;;;;5005842;28;20619;-61
2021/07/02 00:54:00;;;;;;;34.53;8.43;;;20.70;79.00;;;;;;4954601;28;20478;-60
2021/07/02 00:56:26;;;;;;;29.33;8.60;;;20.70;79.00;;;;;;5000742;28;20103;-62
2021/07/02 00:58:51;;;;;;;28.42;8.20;;;20.70;79.20;;;;;;5001541;28;20065;-61
2021/07/02 01:01:17;;;;;;;28.30;7.90;;;20.70;79.20;;;;;;4998821;28;20042;-61
2021/07/02 01:03:43;;;;;;;25.13;7.53;;;20.70;79.30;;;;;;5005222;28;20042;-62
2021/07/02 01:06:09;;;;;;;30.20;8.57;;;20.70;79.30;;;;;;5003814;28;20068;-61
2021/07/02 01:08:35;;;;;;;29.25;7.80;;;20.70;79.30;;;;;;4986578;28;20045;-61
2021/07/02 01:11:01;;;;;;;33.33;6.95;;;20.70;79.30;;;;;;5003359;28;20030;-62
2021/07/02 01:13:26;;;;;;;32.63;7.85;;;20.70;79.40;;;;;;4988390;28;20755;-61
2021/07/02 01:15:55;;;;;;;26.73;7.55;;;20.70;79.40;;;;;;5005530;28;20480;-62
2021/07/02 01:18:24;;;;;;;21.38;6.65;;;20.60;79.40;;;;;;5004922;28;20498;-60
2021/07/02 01:20:50;;;;;;;28.00;7.10;;;20.60;79.50;;;;;;4985963;28;20132;-60
2021/07/02 01:23:17;;;;;;;26.88;7.32;;;20.60;79.50;;;;;;5004675;28;20033;-61
2021/07/02 01:25:42;;;;;;;28.10;7.75;;;20.70;79.70;;;;;;5004077;28;20449;-60
2021/07/02 01:28:08;;;;;;;31.85;7.88;;;20.60;79.80;;;;;;4985240;28;20022;-61
2021/07/02 01:30:33;;;;;;;26.25;7.00;;;20.60;79.80;;;;;;5004061;28;20304;-62
2021/07/02 01:32:59;;;;;;;30.05;7.22;;;20.60;79.80;;;;;;5001642;28;20087;-61
2021/07/02 01:35:24;;;;;;;13.73;6.57;;;20.60;79.80;;;;;;5004551;28;20026;-61
2021/07/02 01:37:50;;;;;;;31.23;7.00;;;20.60;79.90;;;;;;5003816;28;20070;-60
2021/07/02 01:40:15;;;;;;;22.58;6.88;;;20.60;79.90;;;;;;5003156;28;20048;-60
2021/07/02 01:42:41;;;;;;;21.75;6.70;;;20.60;79.90;;;;;;5003970;28;20050;-62
2021/07/02 01:45:07;;;;;;;18.50;7.03;;;20.50;79.90;;;;;;4982452;28;21058;-61
2021/07/02 01:47:33;;;;;;;21.92;8.00;;;20.50;79.90;;;;;;4981014;28;20084;-60
2021/07/02 01:49:58;;;;;;;19.25;7.20;;;20.50;79.90;;;;;;5000314;28;20034;-61
2021/07/02 01:52:24;;;;;;;22.10;7.15;;;20.50;79.90;;;;;;4966076;28;20026;-61
2021/07/02 01:54:49;;;;;;;22.77;7.25;;;20.50;79.90;;;;;;5000513;28;20045;-61
2021/07/02 01:57:22;;;;;;;14.95;6.88;;;20.50;80.00;;;;;;4998826;28;20049;-60
2021/07/02 01:59:48;;;;;;;15.50;7.00;;;20.50;80.00;;;;;;4984299;28;20033;-61
2021/07/02 02:02:14;;;;;;;20.08;8.10;;;20.50;80.00;;;;;;5001969;28;20034;-60
2021/07/02 02:04:39;;;;;;;17.67;7.45;;;20.40;80.00;;;;;;4997917;28;20080;-60
2021/07/02 02:07:05;;;;;;;16.92;7.50;;;20.50;80.00;;;;;;5001318;28;20458;-60
2021/07/02 02:09:30;;;;;;;15.80;7.60;;;20.40;80.00;;;;;;5000399;28;20655;-60
2021/07/02 02:11:56;;;;;;;18.98;7.93;;;20.40;80.10;;;;;;4982898;28;20117;-61
2021/07/02 02:14:21;;;;;;;18.52;7.45;;;20.40;80.20;;;;;;5001578;28;20072;-61
2021/07/02 02:16:47;;;;;;;18.65;7.65;;;20.30;80.20;;;;;;5001184;28;20040;-61
2021/07/02 02:19:12;;;;;;;14.20;7.20;;;20.40;80.40;;;;;;4999618;28;20262;-60
2021/07/02 02:21:38;;;;;;;20.95;6.93;;;20.40;80.50;;;;;;4980916;28;20045;-61
2021/07/02 02:24:04;;;;;;;16.15;7.05;;;20.30;80.40;;;;;;5000453;28;20092;-61
2021/07/02 02:26:29;;;;;;;15.48;7.20;;;20.40;80.50;;;;;;4981846;28;20032;-61
2021/07/02 02:28:55;;;;;;;9.98;6.05;;;20.30;80.60;;;;;;5000399;28;20033;-60
2021/07/02 02:31:21;;;;;;;15.70;6.60;;;20.30;80.70;;;;;;5000508;28;20101;-60
2021/07/02 02:33:46;;;;;;;12.73;6.25;;;20.30;80.70;;;;;;4999781;28;20508;-59
2021/07/02 02:36:12;;;;;;;19.17;6.82;;;20.30;80.90;;;;;;5002839;28;20528;-59
2021/07/02 02:38:37;;;;;;;20.70;6.80;;;20.30;80.80;;;;;;5003684;28;20030;-61
2021/07/02 02:41:03;;;;;;;10.05;6.47;;;20.30;80.80;;;;;;5015656;28;20025;-60
2021/07/02 02:43:28;;;;;;;15.40;6.05;;;20.30;80.80;;;;;;5016879;28;20029;-61
2021/07/02 02:45:54;;;;;;;8.10;6.30;;;20.20;80.90;;;;;;5002201;28;20033;-60
2021/07/02 02:48:20;;;;;;;12.45;5.93;;;20.20;80.90;;;;;;4969079;28;20045;-61
2021/07/02 02:50:45;;;;;;;12.50;6.50;;;20.20;81.00;;;;;;5003232;28;20794;-62
2021/07/02 02:53:11;;;;;;;13.82;7.10;;;20.20;81.10;;;;;;5001942;28;20509;-62
2021/07/02 02:55:36;;;;;;;11.52;5.72;;;20.20;81.20;;;;;;5002875;28;20038;-62
2021/07/02 02:58:02;;;;;;;12.50;6.07;;;20.20;81.30;;;;;;4985046;28;20037;-61
2021/07/02 03:00:27;;;;;;;12.93;6.60;;;20.20;81.30;;;;;;5002244;28;20080;-60
2021/07/02 03:02:53;;;;;;;10.35;5.97;;;20.20;81.40;;;;;;5003411;28;20101;-61
2021/07/02 03:05:18;;;;;;;13.57;6.47;;;20.10;81.30;;;;;;5002961;28;20112;-61
2021/07/02 03:07:44;;;;;;;9.80;5.68;;;20.10;81.30;;;;;;4987574;28;20663;-60
2021/07/02 03:10:10;;;;;;;9.73;5.70;;;20.10;81.30;;;;;;5002782;28;20675;-60
2021/07/02 03:12:36;;;;;;;10.82;5.43;;;20.10;81.30;;;;;;4980737;28;20536;-61
2021/07/02 03:15:01;;;;;;;10.93;6.32;;;20.10;81.40;;;;;;4983947;28;20034;-61
2021/07/02 03:17:27;;;;;;;10.38;6.13;;;20.10;81.40;;;;;;5003383;28;20134;-61
2021/07/02 03:19:52;;;;;;;10.05;5.85;;;20.10;81.50;;;;;;5001568;28;20057;-61
2021/07/02 03:22:18;;;;;;;8.02;5.75;;;20.10;81.40;;;;;;5003608;28;20105;-60
2021/07/02 03:24:43;;;;;;;10.27;6.07;;;20.10;81.50;;;;;;4985694;28;20392;-63
2021/07/02 03:27:09;;;;;;;6.90;5.35;;;20.00;81.50;;;;;;5002277;28;21089;-61
2021/07/02 03:29:35;;;;;;;9.52;5.78;;;20.00;81.60;;;;;;4984764;28;20048;-60
2021/07/02 03:32:01;;;;;;;8.80;5.53;;;20.00;81.60;;;;;;4984589;28;20049;-61
2021/07/02 03:34:26;;;;;;;9.43;6.10;;;20.00;81.70;;;;;;4999682;28;20037;-62
2021/07/02 03:36:52;;;;;;;12.65;6.35;;;20.00;81.70;;;;;;5002832;28;20045;-62
2021/07/02 03:39:17;;;;;;;8.85;6.55;;;20.00;81.80;;;;;;5003326;28;20049;-62
2021/07/02 03:41:43;;;;;;;12.73;5.47;;;20.00;81.70;;;;;;5001710;28;20030;-61
2021/07/02 03:44:08;;;;;;;7.80;5.35;;;20.00;81.80;;;;;;5003942;28;20065;-61
2021/07/02 03:46:34;;;;;;;12.00;5.38;;;20.00;81.80;;;;;;5001402;28;20104;-60
2021/07/02 03:48:59;;;;;;;9.48;5.47;;;20.00;81.80;;;;;;5002755;28;20478;-61
2021/07/02 03:51:25;;;;;;;9.20;5.50;;;19.90;81.80;;;;;;5002257;28;20685;-62
2021/07/02 03:53:50;;;;;;;8.27;5.22;;;19.90;81.80;;;;;;5018733;28;20520;-61
2021/07/02 03:56:16;;;;;;;7.45;4.80;;;19.90;81.80;;;;;;4984319;28;20030;-61
2021/07/02 03:58:41;;;;;;;7.30;5.30;;;19.90;81.80;;;;;;5004251;28;20034;-61
2021/07/02 04:01:07;;;;;;;6.72;5.15;;;19.90;81.90;;;;;;5018176;28;20042;-60
2021/07/02 04:03:33;;;;;;;10.07;5.68;;;20.00;81.90;;;;;;4985031;28;20030;-61
2021/07/02 04:05:59;;;;;;;8.68;5.55;;;19.90;81.80;;;;;;4985139;28;20109;-63
2021/07/02 04:08:24;;;;;;;6.43;5.28;;;19.90;81.90;;;;;;4986211;28;20033;-61
2021/07/02 04:10:50;;;;;;;10.32;5.38;;;19.90;82.20;;;;;;5001836;28;20085;-61
2021/07/02 04:13:15;;;;;;;8.38;4.85;;;19.90;81.90;;;;;;5003767;28;20112;-61
2021/07/02 04:15:41;;;;;;;7.57;5.20;;;19.80;81.90;;;;;;4985570;28;20415;-61
2021/07/02 04:18:07;;;;;;;9.13;5.30;;;19.80;81.90;;;;;;5019048;28;20031;-61
2021/07/02 04:20:33;;;;;;;10.05;5.40;;;19.80;82.10;;;;;;4967020;28;20144;-61
2021/07/02 04:22:59;;;;;;;11.63;5.05;;;19.80;82.10;;;;;;4986178;28;20161;-61
2021/07/02 04:25:24;;;;;;;9.02;5.28;;;19.80;82.20;;;;;;5003349;28;20045;-62
2021/07/02 04:27:50;;;;;;;6.22;5.35;;;19.80;82.10;;;;;;5004479;28;20037;-61
2021/07/02 04:30:16;;;;;;;10.07;4.90;;;19.80;82.30;;;;;;5006305;28;20018;-61
2021/07/02 04:32:41;;;;;;;8.75;5.47;;;19.80;82.20;;;;;;5006826;28;20460;-61
2021/07/02 04:35:09;;;;;;;9.60;4.97;;;19.80;82.20;;;;;;4988920;28;20061;-60
2021/07/02 04:37:35;;;;;;;8.02;5.80;;;19.60;82.00;;;;;;4987765;28;20354;-61
2021/07/02 04:40:01;;;;;;;9.75;5.43;;;19.80;82.10;;;;;;5021914;28;20560;-61
2021/07/02 04:42:27;;;;;;;8.32;4.85;;;19.80;82.00;;;;;;5006951;28;20030;-60
2021/07/02 04:44:52;;;;;;;6.20;4.85;;;19.80;82.10;;;;;;4986753;28;20104;-62
2021/07/02 04:47:18;;;;;;;6.72;4.95;;;19.80;82.10;;;;;;5006009;28;20294;-61
2021/07/02 04:49:43;;;;;;;11.40;5.20;;;19.80;82.10;;;;;;5006012;28;20365;-62
2021/07/02 04:52:09;;;;;;;6.18;5.20;;;19.70;82.10;;;;;;5006207;28;20061;-61
2021/07/02 04:54:34;;;;;;;5.90;4.68;;;19.70;82.10;;;;;;5006522;28;20112;-62
2021/07/02 04:57:01;;;;;;;9.35;5.25;;;19.70;82.20;;;;;;5005902;28;20033;-62
2021/07/02 04:59:30;;;;;;;8.32;5.13;;;19.70;82.20;;;;;;4972099;28;20038;-60
2021/07/02 05:01:56;;;;;;;7.80;5.55;;;19.80;82.30;;;;;;5022226;28;20536;-62
2021/07/02 05:04:22;;;;;;;8.27;4.85;;;19.70;82.30;;;;;;4970856;28;20030;-61
2021/07/02 05:06:47;;;;;;;8.88;5.38;;;19.70;82.30;;;;;;5006188;28;20056;-62
2021/07/02 05:09:13;;;;;;;7.97;4.70;;;19.70;82.40;;;;;;4988835;28;20053;-61
2021/07/02 05:11:39;;;;;;;9.15;5.43;;;19.70;82.30;;;;;;4986384;28;20042;-62
2021/07/02 05:14:05;;;;;;;10.50;5.20;;;19.70;82.70;;;;;;4989489;28;20053;-61
2021/07/02 05:16:30;;;;;;;7.07;5.20;;;19.70;82.50;;;;;;4988317;28;20088;-61
2021/07/02 05:18:56;;;;;;;9.48;5.43;;;19.70;82.50;;;;;;4985746;28;20034;-61
2021/07/02 05:21:21;;;;;;;8.00;5.32;;;19.70;82.50;;;;;;5005950;28;20104;-61
2021/07/02 05:23:47;;;;;;;9.57;5.35;;;19.70;82.60;;;;;;5004833;28;20053;-60
2021/07/02 05:26:13;;;;;;;7.90;5.50;;;19.70;82.60;;;;;;4986863;28;20029;-60
2021/07/02 05:28:39;;;;;;;11.63;5.50;;;19.70;82.60;;;;;;5002400;28;20034;-61
2021/07/02 05:31:04;;;;;;;8.68;4.82;;;19.70;82.60;;;;;;5014215;28;20034;-60
2021/07/02 05:33:30;;;;;;;11.90;5.57;;;19.70;82.60;;;;;;4985754;28;20088;-61
2021/07/02 05:35:55;;;;;;;13.23;5.05;;;19.70;82.60;;;;;;4985117;28;20510;-61
2021/07/02 05:38:21;;;;;;;13.05;4.75;;;19.70;82.60;;;;;;5005524;28;20048;-62
2021/07/02 05:40:46;;;;;;;7.80;4.93;;;19.70;82.60;;;;;;4984674;28;20030;-61
2021/07/02 05:43:12;;;;;;;9.38;5.50;;;19.70;82.60;;;;;;5006038;28;20026;-61
2021/07/02 05:45:38;;;;;;;10.85;5.53;;;19.70;82.80;;;;;;5001552;28;20030;-62
2021/07/02 05:48:03;;;;;;;12.85;5.80;;;19.70;82.80;;;;;;4985385;28;20033;-61
2021/07/02 05:50:29;;;;;;;8.70;5.43;;;19.70;82.80;;;;;;5005443;28;20569;-61
2021/07/02 05:52:55;;;;;;;9.73;5.13;;;19.70;82.90;;;;;;4988140;28;20148;-61
2021/07/02 05:55:24;;;;;;;8.55;5.22;;;19.70;83.20;;;;;;5004668;28;20541;-60
2021/07/02 05:57:50;;;;;;;12.48;5.30;;;19.80;83.20;;;;;;4971403;28;20117;-60
2021/07/02 06:00:16;;;;;;;17.10;5.40;;;19.70;83.30;;;;;;4987370;28;20493;-62
2021/07/02 06:02:41;;;;;;;14.05;5.78;;;19.80;83.70;;;;;;5019314;28;20095;-62
2021/07/02 06:05:07;;;;;;;12.43;5.93;;;19.80;83.60;;;;;;5004960;28;20484;-61
2021/07/02 06:08:02;;;;;;;13.38;6.35;;;19.80;83.60;;;;;;5006209;28;20659;-61
2021/07/02 06:10:27;;;;;;;15.60;5.88;;;19.80;83.30;;;;;;4997162;28;20058;-61
2021/07/02 06:12:53;;;;;;;13.23;5.35;;;19.80;83.10;;;;;;5005006;28;20042;-61
2021/07/02 06:15:19;;;;;;;14.48;5.63;;;19.80;83.00;;;;;;5003412;28;20108;-61
2021/07/02 06:17:45;;;;;;;17.52;5.60;;;19.80;82.90;;;;;;5004547;28;20041;-62
2021/07/02 06:20:12;;;;;;;9.68;5.30;;;19.80;82.80;;;;;;5004937;28;20526;-62
2021/07/02 06:22:37;;;;;;;22.58;5.93;;;19.80;82.70;;;;;;5002708;28;20473;-61
2021/07/02 06:25:04;;;;;;;22.50;6.88;;;19.90;82.80;;;;;;4987044;28;20093;-61
2021/07/02 06:27:29;;;;;;;18.13;6.90;;;19.90;82.80;;;;;;5002438;28;20045;-61
2021/07/02 06:29:55;;;;;;;10.75;6.03;;;19.90;82.70;;;;;;5003770;28;20407;-61
2021/07/02 06:32:21;;;;;;;17.00;5.88;;;19.90;82.60;;;;;;5002685;28;20478;-60
2021/07/02 06:34:46;;;;;;;19.05;6.45;;;19.90;82.60;;;;;;5002777;28;20018;-60
2021/07/02 06:37:12;;;;;;;22.23;6.22;;;20.00;82.60;;;;;;4987177;28;20426;-59
2021/07/02 06:39:37;;;;;;;18.02;6.05;;;19.90;82.50;;;;;;5000698;28;20065;-60
2021/07/02 06:42:03;;;;;;;16.52;5.60;;;19.90;82.60;;;;;;5014679;28;20039;-59
2021/07/02 06:44:29;;;;;;;30.20;6.78;;;20.00;82.70;;;;;;4983678;28;20581;-60
2021/07/02 06:46:54;;;;;;;56.33;9.32;;;20.00;82.60;;;;;;5001643;28;20116;-59
2021/07/02 06:49:20;;;;;;;89.32;11.93;;;20.00;82.90;;;;;;5001721;28;20029;-59
2021/07/02 06:51:46;;;;;;;68.70;10.18;;;20.00;83.40;;;;;;5004950;28;20298;-60
2021/07/02 06:54:11;;;;;;;46.65;8.80;;;20.10;83.10;;;;;;4996545;28;20045;-61
2021/07/02 06:56:37;;;;;;;45.03;8.70;;;20.10;82.70;;;;;;5001506;28;20066;-59
2021/07/02 06:59:02;;;;;;;178.85;20.75;;;20.10;82.70;;;;;;4998184;28;20034;-60
2021/07/02 07:01:28;;;;;;;73.82;11.98;;;20.10;82.50;;;;;;4986403;28;20061;-59
2021/07/02 07:03:53;;;;;;;78.22;11.25;;;20.20;82.70;;;;;;5003433;28;20112;-60
2021/07/02 07:06:19;;;;;;;39.55;8.25;;;20.10;82.60;;;;;;4994066;28;20037;-60
2021/07/02 07:08:44;;;;;;;40.17;8.38;;;20.10;81.80;;;;;;4983652;28;20141;-61
2021/07/02 07:11:10;;;;;;;36.53;7.30;;;20.10;81.30;;;;;;4991275;28;20038;-61
2021/07/02 07:13:37;;;;;;;31.70;9.02;;;20.10;81.10;;;;;;4994337;28;20022;-62
2021/07/02 07:16:03;;;;;;;29.50;7.82;;;20.00;81.00;;;;;;4994782;28;20034;-61
2021/07/02 07:18:29;;;;;;;56.03;10.07;;;20.00;81.00;;;;;;4988092;28;20492;-60
2021/07/02 07:20:54;;;;;;;41.47;7.15;;;20.00;80.90;;;;;;4992533;28;20129;-60
2021/07/02 07:23:20;;;;;;;44.58;8.00;;;19.90;80.90;;;;;;4982179;28;20100;-60
2021/07/02 07:25:46;;;;;;;30.88;7.60;;;19.90;80.80;;;;;;4977426;28;20544;-59
2021/07/02 07:28:11;;;;;;;30.60;8.02;;;19.90;80.80;;;;;;5000044;28;20042;-60
2021/07/02 07:30:37;;;;;;;52.05;8.88;;;19.90;80.60;;;;;;4985742;28;20074;-60
2021/07/02 07:33:03;;;;;;;47.47;10.10;;;19.90;80.10;;;;;;4989797;28;20053;-59
2021/07/02 07:35:32;;;;;;;54.40;9.02;;;19.90;80.20;;;;;;5009283;28;20165;-60
2021/07/02 07:37:57;;;;;;;44.47;8.43;;;19.90;80.30;;;;;;4986741;28;20438;-59
2021/07/02 07:40:26;;;;;;;104.10;14.38;;;19.90;80.00;;;;;;4993245;28;20041;-59
2021/07/02 07:42:52;;;;;;;89.03;12.70;;;19.90;79.80;;;;;;4980488;28;20159;-59
2021/07/02 07:45:17;;;;;;;57.78;9.55;;;19.90;79.90;;;;;;4955827;28;20046;-62
2021/07/02 07:47:43;;;;;;;53.92;8.50;;;19.90;79.90;;;;;;4994365;28;20105;-62
2021/07/02 07:50:10;;;;;;;56.58;10.05;;;19.90;79.80;;;;;;4992990;28;20026;-61
2021/07/02 07:52:43;;;;;;;49.83;9.15;;;19.90;79.60;;;;;;4978647;28;20066;-61
2021/07/02 07:55:08;;;;;;;54.08;11.50;;;19.90;79.60;;;;;;4932941;28;20042;-61
2021/07/02 07:57:34;;;;;;;42.13;9.23;;;19.90;79.40;;;;;;4971610;28;20726;-59
2021/07/02 07:59:59;;;;;;;33.35;8.90;;;20.00;79.20;;;;;;4999845;28;20109;-60
2021/07/02 08:02:25;;;;;;;33.83;9.18;;;19.90;78.90;;;;;;4980232;28;20478;-59
2021/07/02 08:04:50;;;;;;;38.70;9.05;;;20.00;78.80;;;;;;4995024;28;20034;-59
2021/07/02 08:07:16;;;;;;;41.08;9.18;;;20.00;78.80;;;;;;4998145;28;20453;-60
2021/07/02 08:09:41;;;;;;;40.03;8.40;;;20.00;78.90;;;;;;4977884;28;20029;-60
2021/07/02 08:12:07;;;;;;;30.50;7.50;;;20.00;78.50;;;;;;5001276;28;20058;-60
2021/07/02 08:14:32;;;;;;;28.73;8.23;;;20.00;78.20;;;;;;5002996;28;20108;-59
2021/07/02 08:16:58;;;;;;;41.70;9.73;;;20.00;77.90;;;;;;5001711;28;20044;-60
2021/07/02 08:19:23;;;;;;;43.75;8.82;;;20.00;78.00;;;;;;4987126;28;20117;-60
2021/07/02 08:21:49;;;;;;;36.38;8.40;;;20.10;78.00;;;;;;5001490;28;20090;-59
2021/07/02 08:24:14;;;;;;;49.95;9.20;;;20.10;78.30;;;;;;5001094;28;20038;-59
2021/07/02 08:26:41;;;;;;;56.13;8.93;;;20.10;77.70;;;;;;5001865;28;20097;-59
2021/07/02 08:31:51;;;;;;;57.30;9.40;;;20.10;77.40;;;;;;5002017;28;20088;-59
2021/07/02 08:34:16;;;;;;;40.70;10.10;;;20.10;77.20;;;;;;4982376;28;20042;-60
2021/07/02 08:36:42;;;;;;;53.83;9.35;;;20.10;77.20;;;;;;5014765;28;20359;-59
2021/07/02 08:39:08;;;;;;;52.40;10.88;;;20.10;76.90;;;;;;5002065;28;20436;-62
2021/07/02 08:41:33;;;;;;;42.35;9.15;;;20.10;76.80;;;;;;4983674;28;20093;-59
2021/07/02 08:43:59;;;;;;;35.45;8.80;;;20.10;76.80;;;;;;4982022;28;20091;-59
2021/07/02 08:46:24;;;;;;;51.35;8.88;;;20.10;76.80;;;;;;5003086;28;20452;-60
2021/07/02 08:48:51;;;;;;;49.72;8.73;;;20.00;76.30;;;;;;4995492;28;20041;-60
2021/07/02 08:51:16;;;;;;;48.08;9.38;;;20.10;76.40;;;;;;4984315;28;20034;-59
2021/07/02 08:53:42;;;;;;;69.43;10.25;;;20.20;76.30;;;;;;4986852;28;20100;-60
2021/07/02 08:56:08;;;;;;;65.78;9.40;;;20.20;76.10;;;;;;4971135;28;20037;-60
2021/07/02 08:58:34;;;;;;;65.78;11.43;;;20.30;76.20;;;;;;4984979;28;20597;-59
2021/07/02 09:01:05;;;;;;;44.40;8.57;;;20.30;75.80;;;;;;5001304;28;21659;-60
2021/07/02 09:03:38;;;;;;;55.80;10.30;;;20.30;75.60;;;;;;4970987;28;20034;-60
2021/07/02 09:06:11;;;;;;;54.08;9.65;;;20.30;75.70;;;;;;4966434;28;20148;-59
2021/07/02 09:08:37;;;;;;;81.75;12.55;;;20.30;75.30;;;;;;4997881;28;20025;-60
2021/07/02 09:11:03;;;;;;;35.60;8.90;;;20.40;75.30;;;;;;4952074;28;20018;-60
2021/07/02 09:13:42;;;;;;;57.90;9.98;;;20.40;75.10;;;;;;4984830;28;20037;-60
2021/07/02 09:16:21;;;;;;;66.75;10.60;;;20.40;74.90;;;;;;5000158;28;20033;-59
2021/07/02 09:18:47;;;;;;;57.03;10.05;;;20.40;74.80;;;;;;4981665;28;20038;-60
2021/07/02 09:21:25;;;;;;;75.95;11.90;;;20.40;74.60;;;;;;4982743;28;20050;-60
2021/07/02 09:23:51;;;;;;;55.72;11.20;;;20.50;74.60;;;;;;5001149;28;20069;-59
2021/07/02 09:26:42;;;;;;;59.03;9.75;;;20.50;74.60;;;;;;4967291;28;20604;-59
2021/07/02 09:29:19;;;;;;;43.95;9.10;;;20.50;74.50;;;;;;4970318;28;20033;-59
2021/07/02 09:31:44;;;;;;;82.78;10.05;;;20.60;74.00;;;;;;5000795;28;20088;-60
2021/07/02 09:34:10;;;;;;;69.82;9.85;;;20.60;73.50;;;;;;4969326;28;20151;-60
2021/07/02 09:36:35;;;;;;;60.28;10.05;;;20.60;73.20;;;;;;4966991;28;20548;-59
2021/07/02 09:39:01;;;;;;;79.53;10.93;;;20.60;73.10;;;;;;5016086;28;20082;-60
2021/07/02 09:41:33;;;;;;;72.43;11.90;;;20.60;72.80;;;;;;4982722;28;20038;-59
2021/07/02 09:44:11;;;;;;;80.07;10.93;;;20.60;72.50;;;;;;4980128;28;20765;-60
2021/07/02 09:46:37;;;;;;;106.00;10.73;;;20.60;72.10;;;;;;4998871;28;20024;-60
2021/07/02 09:49:03;;;;;;;82.10;11.35;;;20.60;72.20;;;;;;4968551;28;20038;-60
2021/07/02 09:51:28;;;;;;;67.57;10.27;;;20.60;71.40;;;;;;4987382;28;20029;-61
2021/07/02 09:54:07;;;;;;;91.07;11.90;;;20.70;71.30;;;;;;4969629;28;20064;-60
2021/07/02 09:56:33;;;;;;;114.88;15.25;;;20.70;70.90;;;;;;4978054;28;20056;-60
2021/07/02 09:58:58;;;;;;;116.70;14.40;;;20.70;70.50;;;;;;4986743;28;20595;-60
2021/07/02 10:01:25;;;;;;;87.88;11.18;;;20.70;70.50;;;;;;4993552;28;20394;-60
2021/07/02 10:03:51;;;;;;;87.97;12.40;;;21.00;70.90;;;;;;4980397;28;20026;-61
2021/07/02 10:06:19;;;;;;;96.70;13.73;;;20.70;70.90;;;;;;4967343;28;20044;-60
2021/07/02 10:08:45;;;;;;;71.80;11.77;;;20.80;70.70;;;;;;4998362;28;20030;-60
2021/07/02 10:11:12;;;;;;;121.63;15.02;;;20.80;70.30;;;;;;4967152;28;20066;-60
2021/07/02 10:13:45;;;;;;;126.38;15.50;;;20.90;70.30;;;;;;4966591;28;20021;-61
2021/07/02 10:16:11;;;;;;;83.78;12.82;;;20.90;69.90;;;;;;4982186;28;20410;-61
2021/07/02 10:18:38;;;;;;;63.25;11.25;;;20.90;69.60;;;;;;4982329;28;20061;-60
2021/07/02 10:21:04;;;;;;;70.93;9.98;;;20.90;69.50;;;;;;4981392;28;20070;-60
2021/07/02 10:23:39;;;;;;;72.45;9.27;;;20.90;68.50;;;;;;4995477;28;20133;-59
2021/07/02 10:26:07;;;;;;;89.95;12.68;;;21.00;67.90;;;;;;4980303;28;20564;-60
2021/07/02 10:28:32;;;;;;;64.63;10.48;;;21.00;67.60;;;;;;4999699;28;20065;-60
2021/07/02 10:30:58;;;;;;;83.40;11.63;;;21.00;67.70;;;;;;4978446;28;20700;-61
2021/07/02 10:33:27;;;;;;;67.55;10.55;;;21.00;66.90;;;;;;4981240;28;20034;-60
2021/07/02 10:35:55;;;;;;;71.72;10.38;;;21.10;67.00;;;;;;4991668;28;20103;-59
2021/07/02 10:38:21;;;;;;;58.63;9.68;;;21.10;67.80;;;;;;4966803;28;20025;-59
2021/07/02 10:40:46;;;;;;;51.40;9.10;;;21.10;66.80;;;;;;4974046;28;20673;-59
2021/07/02 10:43:17;;;;;;;78.97;10.55;;;21.20;67.00;;;;;;4967550;28;20027;-59
2021/07/02 10:46:07;;;;;;;55.83;9.13;;;21.20;66.60;;;;;;4996377;28;20093;-59
2021/07/02 10:48:55;;;;;;;79.85;10.98;;;21.20;66.20;;;;;;4995778;28;20026;-59
2021/07/02 10:51:37;;;;;;;47.03;8.60;;;21.30;66.00;;;;;;4998038;28;20025;-59
2021/07/02 10:54:18;;;;;;;93.70;12.00;;;21.30;66.10;;;;;;4999357;28;20076;-59
2021/07/02 10:56:56;;;;;;;55.92;10.20;;;21.40;65.80;;;;;;4998334;28;20113;-59
2021/07/02 10:59:42;;;;;;;72.40;10.20;;;21.50;65.60;;;;;;5013452;28;20649;-59
2021/07/02 11:02:14;;;;;;;112.95;12.07;;;21.50;65.60;;;;;;4996700;28;20073;-59
2021/07/02 11:04:46;;;;;;;77.50;11.40;;;21.60;65.80;;;;;;4997992;28;20042;-58
2021/07/02 11:07:11;;;;;;;97.78;12.25;;;21.70;65.80;;;;;;4975500;28;20040;-60
2021/07/02 11:09:53;;;;;;;89.60;12.68;;;21.80;66.10;;;;;;4998400;28;20034;-61
2021/07/02 11:12:21;;;;;;;78.07;11.75;;;21.90;65.90;;;;;;4998335;28;20010;-59
2021/07/02 11:14:56;;;;;;;78.45;11.80;;;22.00;66.00;;;;;;4996050;28;20041;-59
2021/07/02 11:17:25;;;;;;;74.60;12.13;;;22.00;66.00;;;;;;4995594;28;20045;-59
2021/07/02 11:22:52;;;;;;;62.20;9.88;;;22.20;65.70;;;;;;4997574;28;20076;-60
2021/07/02 11:25:42;;;;;;;51.08;8.85;;;22.30;65.50;;;;;;4998798;28;20045;-59
2021/07/02 11:28:09;;;;;;;39.05;7.97;;;22.30;65.20;;;;;;4998123;28;21559;-59
2021/07/02 11:30:36;;;;;;;28.63;5.75;;;22.30;65.20;;;;;;4978168;28;20046;-59
2021/07/02 11:33:08;;;;;;;24.02;5.78;;;22.40;64.90;;;;;;5011026;28;20100;-59
2021/07/02 11:35:37;;;;;;;56.85;7.60;;;22.50;64.30;;;;;;4991520;28;20553;-59
2021/07/02 11:38:16;;;;;;;27.80;7.20;;;22.60;64.30;;;;;;4998294;28;20022;-59
2021/07/02 11:40:52;;;;;;;21.08;6.07;;;22.70;64.10;;;;;;4997845;28;20018;-59
2021/07/02 11:43:22;;;;;;;26.13;5.95;;;22.80;64.00;;;;;;4979629;28;20026;-59
2021/07/02 11:45:52;;;;;;;19.67;5.43;;;22.90;64.00;;;;;;4977928;28;20033;-58
2021/07/02 11:48:21;;;;;;;23.83;6.30;;;23.00;63.70;;;;;;4995261;28;20022;-60
2021/07/02 11:50:46;;;;;;;39.10;7.70;;;23.10;63.80;;;;;;5000415;28;20030;-59
2021/07/02 11:53:31;;;;;;;37.85;7.50;;;23.20;63.70;;;;;;5001594;28;20600;-59
2021/07/02 11:56:04;;;;;;;39.45;7.70;;;23.20;63.70;;;;;;4979836;28;20054;-61
2021/07/02 11:58:30;;;;;;;54.67;7.78;;;23.30;63.50;;;;;;4981109;28;20026;-62
2021/07/02 12:00:57;;;;;;;42.60;6.45;;;23.30;63.20;;;;;;4997661;28;20034;-62
2021/07/02 12:03:23;;;;;;;38.28;7.25;;;23.40;63.30;;;;;;4980276;28;20034;-61
2021/07/02 12:05:59;;;;;;;47.63;8.00;;;23.50;63.10;;;;;;4980842;28;20048;-61
2021/07/02 12:08:27;;;;;;;46.42;7.93;;;23.50;63.10;;;;;;4996115;28;20052;-60
2021/07/02 12:10:54;;;;;;;43.65;7.22;;;23.60;63.00;;;;;;4996365;28;20156;-60
2021/07/02 12:13:21;;;;;;;34.90;7.50;;;23.60;62.70;;;;;;4998099;28;20025;-61
2021/07/02 12:15:59;;;;;;;42.08;8.25;;;23.60;62.80;;;;;;5014540;28;20077;-60
2021/07/02 12:18:25;;;;;;;50.95;8.02;;;23.70;62.70;;;;;;4999490;28;20025;-62
2021/07/02 12:20:58;;;;;;;47.58;8.23;;;23.80;62.30;;;;;;4956973;28;20057;-60
2021/07/02 12:23:31;;;;;;;40.63;7.20;;;23.80;62.10;;;;;;4985219;28;20045;-61
2021/07/02 12:26:30;;;;;;;51.25;8.23;;;23.90;62.10;;;;;;4980174;28;20422;-61
2021/07/02 12:29:04;;;;;;;53.05;8.35;;;23.90;62.10;;;;;;5000080;28;20065;-61
2021/07/02 12:31:36;;;;;;;48.67;7.90;;;24.00;62.30;;;;;;4978982;28;20595;-61
2021/07/02 12:34:03;;;;;;;52.03;8.23;;;24.00;62.10;;;;;;4998993;28;20042;-59
2021/07/02 12:36:28;;;;;;;54.15;8.35;;;24.10;62.20;;;;;;5000225;28;20033;-59
2021/07/02 12:39:04;;;;;;;109.88;11.27;;;24.20;62.30;;;;;;4995623;28;20026;-60
2021/07/02 12:41:37;;;;;;;72.55;10.15;;;24.30;62.40;;;;;;5008107;28;20034;-60